Time;durP1;ratioP1;P1;durP2;ratioP2;P2;SDS_P1;SDS_P2;PMS_P1;PMS_P2;Temp;Humidity;BMP_temperature;BMP_pressure;BME280_temperature;BME280_humidity;BME280_pressure;Samples;Min_cycle;Max_cycle;Signal;HPM_P1;HPM_P2
2022/10/13 00:01:55;;;;;;;;;;;11.30;99.90;;;;;;5042975;28;20413;-65
2022/10/13 00:04:23;;;;;;;;;;;11.20;99.90;;;;;;5053240;28;19999;-65
2022/10/13 00:06:51;;;;;;;;;;;11.20;99.90;;;;;;5053489;28;19972;-64
2022/10/13 00:09:19;;;;;;;;;;;11.20;99.90;;;;;;5053389;28;20447;-65
2022/10/13 00:11:48;;;;;;;;;;;11.20;99.90;;;;;;5053235;28;19968;-65
2022/10/13 00:14:15;;;;;;;;;;;11.30;99.90;;;;;;5052872;28;20407;-65
2022/10/13 00:16:43;;;;;;;;;;;11.30;99.90;;;;;;5051971;28;19964;-65
2022/10/13 00:19:11;;;;;;;;;;;11.30;99.90;;;;;;5042786;28;19965;-64
2022/10/13 00:21:41;;;;;;;;;;;11.30;99.90;;;;;;5034281;28;19968;-65
2022/10/13 00:24:10;;;;;;;;;;;11.30;99.90;;;;;;5034313;28;19968;-65
2022/10/13 00:26:38;;;;;;;;;;;11.30;99.90;;;;;;5034226;28;19964;-64
2022/10/13 00:29:07;;;;;;;;;;;11.20;99.90;;;;;;5034371;28;19971;-64
2022/10/13 00:31:34;;;;;;;;;;;11.20;99.90;;;;;;5034069;28;19964;-64
2022/10/13 00:34:02;;;;;;;;;;;11.20;99.90;;;;;;5034149;28;19968;-64
2022/10/13 00:36:31;;;;;;;;;;;11.20;99.90;;;;;;5046760;28;19971;-64
2022/10/13 00:38:58;;;;;;;;;;;11.20;99.90;;;;;;5046428;28;19975;-65
2022/10/13 00:41:26;;;;;;;;;;;11.20;99.90;;;;;;5033935;28;20333;-64
2022/10/13 00:43:58;;;;;;;;;;;11.20;99.90;;;;;;5033762;28;19971;-64
2022/10/13 00:46:28;;;;;;;;;;;11.20;99.90;;;;;;5044914;28;19968;-64
2022/10/13 00:48:57;;;;;;;;;;;11.20;99.90;;;;;;5053747;28;20072;-64
2022/10/13 00:51:26;;;;;;;;;;;11.10;99.90;;;;;;5053595;28;19972;-64
2022/10/13 00:53:55;;;;;;;;;;;11.10;99.90;;;;;;5036813;28;19979;-64
2022/10/13 00:56:23;;;;;;;;;;;11.00;99.90;;;;;;5051532;28;20348;-64
2022/10/13 00:58:51;;;;;;;;;;;11.10;99.90;;;;;;5046487;28;20459;-64
2022/10/13 01:01:19;;;;;;;;;;;11.00;99.90;;;;;;5051999;28;20003;-64
2022/10/13 01:03:48;;;;;;;;;;;11.00;99.90;;;;;;5049915;28;20050;-64
2022/10/13 01:06:17;;;;;;;;;;;11.10;99.90;;;;;;5052534;28;19964;-64
2022/10/13 01:08:50;;;;;;;;;;;11.10;99.90;;;;;;5052167;28;20010;-64
2022/10/13 01:11:27;;;;;;;;;;;11.00;99.90;;;;;;5052095;28;19984;-64
2022/10/13 01:13:58;;;;;;;;;;;11.00;99.90;;;;;;5052408;28;20025;-64
2022/10/13 01:16:30;;;;;;;;;;;11.00;99.90;;;;;;5051521;28;19964;-64
2022/10/13 01:19:05;;;;;;;;;;;11.00;99.90;;;;;;5045717;28;20500;-64
2022/10/13 01:21:34;;;;;;;;;;;11.00;99.90;;;;;;5051826;28;19971;-64
2022/10/13 01:24:11;;;;;;;;;;;11.00;99.90;;;;;;5051912;28;19968;-65
2022/10/13 01:26:53;;;;;;;;;;;11.00;99.90;;;;;;5050014;28;19964;-64
2022/10/13 01:29:32;;;;;;;;;;;10.90;99.90;;;;;;5049842;28;19994;-64
2022/10/13 01:32:06;;;;;;;;;;;11.00;99.90;;;;;;5051263;28;19975;-64
2022/10/13 01:34:36;;;;;;;;;;;11.00;99.90;;;;;;5052994;28;20379;-64
2022/10/13 01:37:07;;;;;;;;;;;11.00;99.90;;;;;;5048861;28;19970;-64
2022/10/13 01:39:38;;;;;;;;;;;11.00;99.90;;;;;;5051730;28;20052;-64
2022/10/13 01:42:11;;;;;;;;;;;11.00;99.90;;;;;;5050087;28;20359;-64
2022/10/13 01:44:40;;;;;;;;;;;11.00;99.90;;;;;;5009626;28;20034;-64
2022/10/13 01:47:11;;;;;;;;;;;11.00;99.90;;;;;;5013205;28;19979;-65
2022/10/13 01:49:39;;;;;;;;;;;11.00;99.90;;;;;;5012938;28;19967;-64
2022/10/13 01:52:08;;;;;;;;;;;11.10;99.90;;;;;;5012881;28;20506;-65
2022/10/13 01:54:36;;;;;;;;;;;11.00;99.90;;;;;;5012976;28;19979;-65
2022/10/13 01:57:04;;;;;;;;;;;11.00;99.90;;;;;;4995556;28;20323;-64
2022/10/13 01:59:35;;;;;;;;;;;11.00;99.90;;;;;;4992988;28;20076;-64
2022/10/13 02:02:05;;;;;;;;;;;11.10;99.90;;;;;;5008915;28;20071;-65
2022/10/13 02:04:42;;;;;;;;;;;11.10;99.90;;;;;;5012850;28;19975;-65
2022/10/13 02:07:13;;;;;;;;;;;11.10;99.90;;;;;;5012580;28;19974;-65
2022/10/13 02:09:43;;;;;;;;;;;11.00;99.90;;;;;;5012528;28;19975;-65
2022/10/13 02:12:14;;;;;;;;;;;11.10;99.90;;;;;;5012541;28;20004;-65
2022/10/13 02:14:45;;;;;;;;;;;11.00;99.90;;;;;;5012908;28;20071;-65
2022/10/13 02:17:13;;;;;;;;;;;11.00;99.90;;;;;;5009518;28;19981;-66
2022/10/13 02:19:42;;;;;;;;;;;11.10;99.90;;;;;;4992851;28;19976;-65
2022/10/13 02:22:11;;;;;;;;;;;11.00;99.90;;;;;;4992741;28;19969;-65
2022/10/13 02:24:39;;;;;;;;;;;11.10;99.90;;;;;;4992931;28;19973;-65
2022/10/13 02:27:07;;;;;;;;;;;11.20;99.90;;;;;;5006450;28;19971;-66
2022/10/13 02:29:48;;;;;;;;;;;11.20;99.90;;;;;;5009739;28;20362;-65
2022/10/13 02:32:15;;;;;;;;;;;11.20;99.90;;;;;;5008193;28;19968;-65
2022/10/13 02:34:45;;;;;;;;;;;11.20;99.90;;;;;;5010699;28;20512;-65
2022/10/13 02:37:13;;;;;;;;;;;11.20;99.90;;;;;;5007691;28;20605;-66
2022/10/13 02:39:41;;;;;;;;;;;11.20;99.90;;;;;;5010148;28;20381;-65
2022/10/13 02:42:09;;;;;;;;;;;11.30;99.90;;;;;;5010740;28;19969;-65
2022/10/13 02:44:36;;;;;;;;;;;11.40;99.90;;;;;;5003088;28;19964;-65
2022/10/13 02:47:04;;;;;;;;;;;11.30;99.90;;;;;;5011194;28;19968;-64
2022/10/13 02:49:32;;;;;;;;;;;11.20;99.90;;;;;;5010983;28;19969;-64
2022/10/13 02:52:01;;;;;;;;;;;11.30;99.90;;;;;;5009479;28;20589;-64
2022/10/13 02:54:28;;;;;;;;;;;11.30;99.90;;;;;;5011023;28;19965;-64
2022/10/13 02:56:56;;;;;;;;;;;11.20;99.90;;;;;;5010745;28;19969;-65
2022/10/13 02:59:24;;;;;;;;;;;11.30;99.90;;;;;;5011952;28;19968;-64
2022/10/13 03:01:52;;;;;;;;;;;11.30;99.90;;;;;;5009235;28;19976;-64
2022/10/13 03:04:20;;;;;;;;;;;11.30;99.90;;;;;;5011742;28;20468;-64
2022/10/13 03:06:47;;;;;;;;;;;11.30;99.90;;;;;;5010108;28;19969;-64
2022/10/13 03:09:16;;;;;;;;;;;11.30;99.90;;;;;;5011778;28;20433;-64
2022/10/13 03:11:44;;;;;;;;;;;11.30;99.90;;;;;;5010810;28;19969;-64
2022/10/13 03:14:12;;;;;;;;;;;11.30;99.90;;;;;;5011061;28;19969;-64
2022/10/13 03:16:39;;;;;;;;;;;11.40;99.90;;;;;;5011425;28;20421;-64
2022/10/13 03:19:07;;;;;;;;;;;11.40;99.90;;;;;;5010570;28;19976;-65
2022/10/13 03:21:35;;;;;;;;;;;11.50;99.90;;;;;;5010693;28;19972;-65
2022/10/13 03:24:04;;;;;;;;;;;11.40;99.90;;;;;;5010723;28;19969;-65
2022/10/13 03:26:33;;;;;;;;;;;11.40;99.90;;;;;;5011344;28;19965;-64
2022/10/13 03:29:01;;;;;;;;;;;11.50;99.90;;;;;;5010939;28;19969;-64
2022/10/13 03:31:29;;;;;;;;;;;11.50;99.90;;;;;;5011492;28;19975;-65
2022/10/13 03:33:57;;;;;;;;;;;11.50;99.90;;;;;;5009635;28;19975;-65
2022/10/13 03:36:25;;;;;;;;;;;11.50;99.90;;;;;;5011428;28;19969;-64
2022/10/13 03:38:52;;;;;;;;;;;11.50;99.90;;;;;;5008690;28;20450;-64
2022/10/13 03:41:21;;;;;;;;;;;11.50;99.90;;;;;;5011306;28;20354;-64
2022/10/13 03:43:50;;;;;;;;;;;11.50;99.90;;;;;;5065147;22;19968;-65
2022/10/13 03:46:18;;;;;;;;;;;11.40;99.90;;;;;;5079214;28;19967;-65
2022/10/13 03:48:46;;;;;;;;;;;11.40;99.90;;;;;;5068322;28;19971;-65
2022/10/13 03:51:15;;;;;;;;;;;11.30;99.90;;;;;;5068438;28;20439;-65
2022/10/13 03:53:42;;;;;;;;;;;11.30;99.90;;;;;;5074664;28;20480;-65
2022/10/13 03:56:12;;;;;;;;;;;11.30;99.90;;;;;;5071642;28;19978;-66
2022/10/13 03:58:40;;;;;;;;;;;11.40;99.90;;;;;;5074745;28;19968;-65
2022/10/13 04:01:09;;;;;;;;;;;11.50;99.90;;;;;;5055426;28;19968;-65
2022/10/13 04:03:36;;;;;;;;;;;11.50;99.90;;;;;;5062968;28;19974;-65
2022/10/13 04:06:05;;;;;;;;;;;11.50;99.90;;;;;;5071999;28;20011;-65
2022/10/13 04:08:33;;;;;;;;;;;11.30;99.90;;;;;;5070897;28;19967;-67
2022/10/13 04:11:01;;;;;;;;;;;11.40;99.90;;;;;;5074046;28;20368;-65
2022/10/13 04:13:29;;;;;;;;;;;11.30;99.90;;;;;;5072652;28;19964;-65
2022/10/13 04:16:01;;;;;;;;;;;11.30;99.90;;;;;;5074329;28;19967;-64
2022/10/13 04:18:30;;;;;;;;;;;11.30;99.90;;;;;;5072655;28;19964;-64
2022/10/13 04:20:58;;;;;;;;;;;11.30;99.90;;;;;;5063504;28;19974;-65
2022/10/13 04:23:26;;;;;;;;;;;11.30;99.90;;;;;;5060825;28;19971;-65
2022/10/13 04:25:55;;;;;;;;;;;11.40;99.90;;;;;;5064229;28;19978;-64
2022/10/13 04:28:22;;;;;;;;;;;11.50;99.90;;;;;;5054122;28;20365;-65
2022/10/13 04:30:50;;;;;;;;;;;11.40;99.90;;;;;;5057203;28;19970;-64
2022/10/13 04:33:18;;;;;;;;;;;11.40;99.90;;;;;;5060554;28;20359;-65
2022/10/13 04:35:47;;;;;;;;;;;11.40;99.90;;;;;;5055828;28;20005;-67
2022/10/13 04:38:15;;;;;;;;;;;11.40;99.90;;;;;;5062582;28;19964;-64
2022/10/13 04:40:43;;;;;;;;;;;11.40;99.90;;;;;;5064600;28;19978;-65
2022/10/13 04:43:10;;;;;;;;;;;11.30;99.90;;;;;;5063115;28;19982;-65
2022/10/13 04:45:38;;;;;;;;;;;11.20;99.90;;;;;;5064353;28;19972;-65
2022/10/13 04:48:06;;;;;;;;;;;11.10;99.90;;;;;;5062922;28;19971;-65
2022/10/13 04:50:34;;;;;;;;;;;11.00;99.90;;;;;;5061840;28;20034;-65
2022/10/13 04:53:03;;;;;;;;;;;10.90;99.90;;;;;;5063891;28;19983;-64
2022/10/13 04:55:31;;;;;;;;;;;10.80;99.90;;;;;;5064392;28;20645;-65
2022/10/13 04:57:58;;;;;;;;;;;10.80;99.90;;;;;;5063889;28;19990;-65
2022/10/13 05:00:26;;;;;;;;;;;10.70;99.90;;;;;;5061584;28;19967;-65
2022/10/13 05:02:54;;;;;;;;;;;10.70;99.90;;;;;;5063165;28;19968;-65
2022/10/13 05:05:22;;;;;;;;;;;10.60;99.90;;;;;;5061416;28;19964;-65
2022/10/13 05:07:49;;;;;;;;;;;10.50;99.90;;;;;;5064097;28;19976;-65
2022/10/13 05:10:19;;;;;;;;;;;10.40;99.90;;;;;;5062082;28;19982;-65
2022/10/13 05:12:46;;;;;;;;;;;10.40;99.90;;;;;;5064020;28;19978;-65
2022/10/13 05:15:14;;;;;;;;;;;10.40;99.90;;;;;;5062617;28;19975;-65
2022/10/13 05:17:44;;;;;;;;;;;10.40;99.90;;;;;;5062659;28;21266;-65
2022/10/13 05:20:12;;;;;;;;;;;10.30;99.90;;;;;;5061770;28;20025;-65
2022/10/13 05:22:40;;;;;;;;;;;10.30;99.90;;;;;;5063257;28;19975;-65
2022/10/13 05:25:08;;;;;;;;;;;10.30;99.90;;;;;;5062404;28;19976;-65
2022/10/13 05:27:37;;;;;;;;;;;10.20;99.90;;;;;;5062500;28;19972;-65
2022/10/13 05:30:05;;;;;;;;;;;10.30;99.90;;;;;;5061636;28;19978;-65
2022/10/13 05:32:34;;;;;;;;;;;10.20;99.90;;;;;;5063093;28;19975;-65
2022/10/13 05:35:02;;;;;;;;;;;10.20;99.90;;;;;;5062841;28;19975;-65
2022/10/13 05:37:30;;;;;;;;;;;10.20;99.90;;;;;;5062625;28;19967;-65
2022/10/13 05:39:57;;;;;;;;;;;10.20;99.90;;;;;;5060748;28;19968;-65
2022/10/13 05:42:25;;;;;;;;;;;10.10;99.90;;;;;;5061663;28;20009;-65
2022/10/13 05:44:54;;;;;;;;;;;10.10;99.90;;;;;;5061483;28;19974;-65
2022/10/13 05:47:26;;;;;;;;;;;10.00;99.90;;;;;;5061815;28;21553;-66
2022/10/13 05:49:54;;;;;;;;;;;9.90;99.90;;;;;;5061450;28;19979;-65
2022/10/13 05:52:23;;;;;;;;;;;9.80;99.90;;;;;;5063053;28;19986;-65
2022/10/13 05:54:53;;;;;;;;;;;9.70;99.90;;;;;;5063039;28;19976;-65
2022/10/13 05:57:22;;;;;;;;;;;9.50;99.90;;;;;;5059853;28;19972;-65
2022/10/13 05:59:52;;;;;;;;;;;9.50;99.90;;;;;;5060928;28;19976;-65
2022/10/13 06:02:22;;;;;;;;;;;9.50;99.90;;;;;;5063283;28;19982;-65
2022/10/13 06:04:52;;;;;;;;;;;9.50;99.90;;;;;;5062273;28;19979;-65
2022/10/13 06:07:20;;;;;;;;;;;9.50;99.90;;;;;;5063045;28;19971;-65
2022/10/13 06:09:48;;;;;;;;;;;9.60;99.90;;;;;;5060516;28;19975;-65
2022/10/13 06:12:16;;;;;;;;;;;9.60;99.90;;;;;;5062814;28;19983;-65
2022/10/13 06:14:44;;;;;;;;;;;9.70;99.90;;;;;;5061220;28;20397;-66
2022/10/13 06:17:12;;;;;;;;;;;9.70;99.90;;;;;;5063026;28;19971;-66
2022/10/13 06:19:41;;;;;;;;;;;9.80;99.90;;;;;;5061301;28;19967;-65
2022/10/13 06:22:09;;;;;;;;;;;9.80;99.90;;;;;;5061608;28;20037;-65
2022/10/13 06:24:37;;;;;;;;;;;9.90;99.90;;;;;;5060377;28;20322;-66
2022/10/13 06:27:04;;;;;;;;;;;9.90;99.90;;;;;;5062637;28;20349;-65
2022/10/13 06:29:32;;;;;;;;;;;10.00;99.90;;;;;;5071488;28;20069;-65
2022/10/13 06:32:00;;;;;;;;;;;10.00;99.90;;;;;;5072110;28;19968;-65
2022/10/13 06:34:28;;;;;;;;;;;10.10;99.90;;;;;;5072274;28;20456;-65
2022/10/13 06:36:57;;;;;;;;;;;10.20;99.90;;;;;;5071825;28;20133;-65
2022/10/13 06:39:25;;;;;;;;;;;10.20;99.90;;;;;;5071847;28;19968;-66
2022/10/13 06:41:54;;;;;;;;;;;10.30;99.90;;;;;;5071365;28;20458;-65
2022/10/13 06:44:21;;;;;;;;;;;10.40;99.90;;;;;;5071577;28;19972;-65
2022/10/13 06:46:49;;;;;;;;;;;10.50;99.90;;;;;;5071632;28;19968;-65
2022/10/13 06:49:17;;;;;;;;;;;10.50;99.90;;;;;;5071710;28;20441;-66
2022/10/13 06:51:45;;;;;;;;;;;10.60;99.90;;;;;;5071804;28;19990;-65
2022/10/13 06:54:14;;;;;;;;;;;10.60;99.90;;;;;;5071751;28;19974;-65
2022/10/13 06:56:42;;;;;;;;;;;10.70;99.90;;;;;;5071796;28;19967;-66
2022/10/13 06:59:09;;;;;;;;;;;10.80;99.90;;;;;;5071718;28;19990;-66
2022/10/13 07:01:37;;;;;;;;;;;10.80;99.90;;;;;;5071480;28;19975;-66
2022/10/13 07:04:08;;;;;;;;;;;10.90;99.90;;;;;;5071615;28;19975;-66
2022/10/13 07:06:36;;;;;;;;;;;11.00;99.90;;;;;;5071681;28;20451;-66
2022/10/13 07:09:04;;;;;;;;;;;11.00;99.90;;;;;;5071723;28;20360;-66
2022/10/13 07:11:33;;;;;;;;;;;11.10;99.90;;;;;;5071403;28;19972;-66
2022/10/13 07:14:01;;;;;;;;;;;11.20;99.90;;;;;;5071502;28;19974;-65
2022/10/13 07:16:33;;;;;;;;;;;11.30;99.90;;;;;;5071479;28;19972;-65
2022/10/13 07:19:01;;;;;;;;;;;11.30;99.90;;;;;;5071597;28;19966;-65
2022/10/13 07:21:29;;;;;;;;;;;11.30;99.90;;;;;;5071658;28;19978;-65
2022/10/13 07:23:56;;;;;;;;;;;11.40;99.90;;;;;;5071113;28;19983;-66
2022/10/13 07:26:24;;;;;;;;;;;11.30;99.90;;;;;;5073053;28;19974;-66
2022/10/13 07:28:53;;;;;;;;;;;11.30;99.90;;;;;;5075208;28;19974;-66
2022/10/13 07:31:21;;;;;;;;;;;11.40;99.90;;;;;;5074970;28;19968;-65
2022/10/13 07:33:49;;;;;;;;;;;11.30;99.90;;;;;;5075182;28;19974;-66
2022/10/13 07:36:17;;;;;;;;;;;11.40;99.90;;;;;;5075421;28;20356;-66
2022/10/13 07:38:45;;;;;;;;;;;11.50;99.90;;;;;;5075516;28;20070;-66
2022/10/13 07:41:13;;;;;;;;;;;11.50;99.90;;;;;;5074458;28;19967;-65
2022/10/13 07:43:41;;;;;;;;;;;11.40;99.90;;;;;;5074664;28;20425;-66
2022/10/13 07:46:11;;;;;;;;;;;11.40;99.90;;;;;;5074944;28;19974;-66
2022/10/13 07:48:40;;;;;;;;;;;11.40;99.90;;;;;;5074752;28;19970;-66
2022/10/13 07:51:08;;;;;;;;;;;11.40;99.90;;;;;;5074613;28;20494;-66
2022/10/13 07:53:36;;;;;;;;;;;11.50;99.90;;;;;;5074669;28;20399;-65
2022/10/13 07:56:05;;;;;;;;;;;11.50;99.90;;;;;;5075055;28;19967;-66
2022/10/13 07:58:32;;;;;;;;;;;11.60;99.90;;;;;;5074716;28;19975;-66
2022/10/13 08:01:01;;;;;;;;;;;11.60;99.90;;;;;;5074615;28;19978;-66
2022/10/13 08:03:31;;;;;;;;;;;11.70;99.90;;;;;;5074700;28;19971;-65
2022/10/13 08:05:59;;;;;;;;;;;11.70;99.90;;;;;;5074396;28;20409;-66
2022/10/13 08:08:27;;;;;;;;;;;11.80;99.90;;;;;;5074531;28;19982;-66
2022/10/13 08:10:55;;;;;;;;;;;11.80;99.90;;;;;;5074291;28;19974;-66
2022/10/13 08:13:23;;;;;;;;;;;11.90;99.90;;;;;;5074302;28;19967;-66
2022/10/13 08:15:50;;;;;;;;;;;12.00;99.90;;;;;;5074463;28;19971;-66
2022/10/13 08:18:18;;;;;;;;;;;12.00;99.90;;;;;;5074218;28;19978;-66
2022/10/13 08:20:47;;;;;;;;;;;12.00;99.90;;;;;;5074194;28;19972;-66
2022/10/13 08:23:15;;;;;;;;;;;12.10;99.90;;;;;;5074264;28;19968;-66
2022/10/13 08:25:43;;;;;;;;;;;12.10;99.90;;;;;;5074158;28;19974;-66
2022/10/13 08:28:14;;;;;;;;;;;12.20;99.90;;;;;;5074174;28;19985;-66
2022/10/13 08:30:42;;;;;;;;;;;12.20;99.90;;;;;;5074030;28;20021;-66
2022/10/13 08:33:10;;;;;;;;;;;12.20;99.90;;;;;;5073824;28;20109;-66
2022/10/13 08:35:38;;;;;;;;;;;12.20;99.90;;;;;;5074062;28;19993;-66
2022/10/13 08:38:07;;;;;;;;;;;12.30;99.90;;;;;;5073029;28;19974;-66
2022/10/13 08:40:37;;;;;;;;;;;12.40;99.90;;;;;;5073627;28;20371;-65
2022/10/13 08:43:05;;;;;;;;;;;12.50;99.90;;;;;;5073695;28;20327;-65
2022/10/13 08:45:33;;;;;;;;;;;12.60;99.90;;;;;;5073984;28;19972;-65
2022/10/13 08:48:11;;;;;;;;;;;12.70;99.90;;;;;;5073922;28;20503;-66
2022/10/13 08:50:40;;;;;;;;;;;12.70;99.90;;;;;;5073457;28;20435;-66
2022/10/13 08:53:13;;;;;;;;;;;12.80;99.90;;;;;;5073857;28;20448;-66
2022/10/13 08:55:42;;;;;;;;;;;12.80;99.90;;;;;;5073589;28;19983;-66
2022/10/13 08:58:12;;;;;;;;;;;12.80;99.90;;;;;;5073423;28;19990;-66
2022/10/13 09:00:41;;;;;;;;;;;12.80;99.90;;;;;;5073497;28;19978;-65
2022/10/13 09:03:19;;;;;;;;;;;12.80;99.90;;;;;;5073509;28;19994;-66
2022/10/13 09:05:53;;;;;;;;;;;12.80;99.90;;;;;;5073482;28;20437;-66
2022/10/13 09:08:22;;;;;;;;;;;12.80;99.90;;;;;;5073320;28;20432;-66
2022/10/13 09:10:51;;;;;;;;;;;12.80;99.90;;;;;;5073156;28;19968;-66
2022/10/13 09:13:19;;;;;;;;;;;12.90;99.90;;;;;;5073232;28;19978;-66
2022/10/13 09:15:49;;;;;;;;;;;12.90;99.90;;;;;;5073278;28;19968;-66
2022/10/13 09:18:16;;;;;;;;;;;12.90;99.90;;;;;;5073074;28;19974;-66
2022/10/13 09:20:44;;;;;;;;;;;12.80;99.90;;;;;;5072971;28;19968;-66
2022/10/13 09:23:17;;;;;;;;;;;12.70;99.90;;;;;;5073105;28;19967;-66
2022/10/13 09:25:48;;;;;;;;;;;12.60;99.90;;;;;;5073130;28;19975;-66
2022/10/13 09:28:18;;;;;;;;;;;12.60;99.90;;;;;;5072986;28;19966;-66
2022/10/13 09:30:46;;;;;;;;;;;12.50;99.90;;;;;;5072749;28;19972;-66
2022/10/13 09:33:16;;;;;;;;;;;12.40;99.90;;;;;;5072771;28;19971;-66
2022/10/13 09:35:45;;;;;;;;;;;12.40;99.90;;;;;;5072899;28;20445;-66
2022/10/13 09:38:14;;;;;;;;;;;12.30;99.90;;;;;;5072798;28;19979;-66
2022/10/13 09:40:41;;;;;;;;;;;12.40;99.90;;;;;;5072632;28;20054;-66
2022/10/13 09:43:25;;;;;;;;;;;12.40;99.90;;;;;;5072731;28;20055;-66
2022/10/13 09:45:53;;;;;;;;;;;12.40;99.90;;;;;;5103694;22;19967;-64
2022/10/13 09:48:22;;;;;;;;;;;12.50;99.90;;;;;;5090081;28;20069;-64
2022/10/13 09:50:51;;;;;;;;;;;12.50;99.90;;;;;;5093283;28;19978;-64
2022/10/13 09:53:23;;;;;;;;;;;12.60;99.90;;;;;;5092984;28;19972;-64
2022/10/13 09:56:06;;;;;;;;;;;12.60;99.90;;;;;;5092710;28;19974;-63
2022/10/13 09:58:37;;;;;;;;;;;12.60;99.90;;;;;;5092507;28;19971;-64
2022/10/13 10:01:05;;;;;;;;;;;12.60;99.90;;;;;;5092489;28;19972;-63
2022/10/13 10:03:35;;;;;;;;;;;12.70;99.90;;;;;;5092676;28;19974;-64
2022/10/13 10:06:05;;;;;;;;;;;12.80;99.90;;;;;;5092501;28;20069;-63
2022/10/13 10:08:36;;;;;;;;;;;12.80;99.90;;;;;;5092429;28;19971;-63
2022/10/13 10:11:27;;;;;;;;;;;12.70;99.90;;;;;;5092610;28;20355;-63
2022/10/13 10:13:57;;;;;;;;;;;12.80;99.90;;;;;;5092589;28;19975;-63
2022/10/13 10:16:30;;;;;;;;;;;12.70;99.90;;;;;;5092572;28;19971;-63
2022/10/13 10:19:00;;;;;;;;;;;12.60;99.90;;;;;;5092243;28;19967;-63
2022/10/13 10:21:31;;;;;;;;;;;12.50;99.90;;;;;;5092211;28;20363;-63
2022/10/13 10:24:01;;;;;;;;;;;12.50;99.90;;;;;;5092472;28;19967;-63
2022/10/13 10:26:38;;;;;;;;;;;12.40;99.90;;;;;;5092379;28;20024;-65
2022/10/13 10:29:17;;;;;;;;;;;12.40;99.90;;;;;;5092161;28;19978;-66
2022/10/13 10:31:55;;;;;;;;;;;12.40;99.90;;;;;;5092066;28;20062;-65
2022/10/13 10:34:38;;;;;;;;;;;12.40;99.90;;;;;;5092456;28;20333;-65
2022/10/13 10:37:13;;;;;;;;;;;12.40;99.90;;;;;;5090014;28;19971;-65
2022/10/13 10:39:44;;;;;;;;;;;12.60;99.90;;;;;;5091625;28;19971;-65
2022/10/13 10:42:19;;;;;;;;;;;12.70;99.90;;;;;;5091633;28;19990;-65
2022/10/13 10:44:51;;;;;;;;;;;12.80;99.90;;;;;;5091757;28;19968;-65
2022/10/13 10:47:20;;;;;;;;;;;12.90;99.90;;;;;;5092012;28;20066;-66
2022/10/13 10:49:50;;;;;;;;;;;12.90;99.90;;;;;;5091540;28;19971;-65
2022/10/13 10:52:23;;;;;;;;;;;13.00;99.90;;;;;;5091870;28;19974;-65
2022/10/13 10:54:53;;;;;;;;;;;13.20;99.90;;;;;;5091929;28;19978;-65
2022/10/13 10:57:24;;;;;;;;;;;13.40;99.90;;;;;;5092025;28;19982;-66
2022/10/13 10:59:57;;;;;;;;;;;13.60;99.90;;;;;;5091568;28;19966;-66
2022/10/13 11:02:34;;;;;;;;;;;13.80;99.90;;;;;;5095667;28;19970;-65
2022/10/13 11:05:02;;;;;;;;;;;13.90;99.90;;;;;;5096003;28;20351;-66
2022/10/13 11:07:56;;;;;;;;;;;14.10;99.90;;;;;;5095917;28;20066;-64
2022/10/13 11:10:25;;;;;;;;;;;14.20;99.90;;;;;;5095619;28;20346;-64
2022/10/13 11:13:20;;;;;;;;;;;14.40;99.90;;;;;;5095834;28;20362;-64
2022/10/13 11:15:50;;;;;;;;;;;14.50;99.90;;;;;;5095956;28;20250;-64
2022/10/13 11:18:36;;;;;;;;;;;14.60;99.90;;;;;;5095723;28;20020;-64
2022/10/13 11:21:04;;;;;;;;;;;14.80;99.90;;;;;;5095742;28;19974;-64
2022/10/13 11:23:33;;;;;;;;;;;15.00;99.90;;;;;;5095868;28;19975;-64
2022/10/13 11:26:20;;;;;;;;;;;15.30;99.90;;;;;;5095630;28;19974;-64
2022/10/13 11:28:47;;;;;;;;;;;15.50;99.90;;;;;;5095202;28;20328;-64
2022/10/13 11:31:25;;;;;;;;;;;15.40;99.90;;;;;;5095308;28;19966;-64
2022/10/13 11:33:57;;;;;;;;;;;15.50;99.90;;;;;;5095685;28;19968;-64
2022/10/13 11:36:32;;;;;;;;;;;15.50;99.90;;;;;;5095393;28;20074;-64
2022/10/13 11:39:04;;;;;;;;;;;15.50;99.90;;;;;;5095305;28;20474;-64
2022/10/13 11:41:35;;;;;;;;;;;15.50;99.90;;;;;;5094722;28;19970;-64
2022/10/13 11:44:04;;;;;;;;;;;15.40;99.90;;;;;;5095066;28;19972;-64
2022/10/13 11:46:46;;;;;;;;;;;15.40;99.90;;;;;;5095291;28;19975;-64
2022/10/13 11:49:19;;;;;;;;;;;15.30;99.90;;;;;;5094944;28;19967;-64
2022/10/13 11:51:55;;;;;;;;;;;15.30;99.90;;;;;;5095377;28;19970;-64
2022/10/13 11:54:27;;;;;;;;;;;15.40;99.90;;;;;;5095069;28;19966;-64
2022/10/13 11:56:56;;;;;;;;;;;15.30;99.90;;;;;;5095208;28;19966;-64
2022/10/13 11:59:25;;;;;;;;;;;15.20;99.90;;;;;;5094808;28;20431;-64
2022/10/13 12:01:56;;;;;;;;;;;15.10;99.90;;;;;;5094752;28;19974;-64
2022/10/13 12:04:24;;;;;;;;;;;15.00;99.90;;;;;;5095061;28;19973;-64
2022/10/13 12:06:54;;;;;;;;;;;14.90;99.90;;;;;;5095022;28;19974;-64
2022/10/13 12:09:22;;;;;;;;;;;14.80;99.90;;;;;;5094570;28;19978;-64
2022/10/13 12:11:56;;;;;;;;;;;14.70;99.90;;;;;;5094507;28;19967;-63
2022/10/13 12:14:26;;;;;;;;;;;14.60;99.90;;;;;;5094683;28;19968;-64
2022/10/13 12:16:56;;;;;;;;;;;14.50;99.90;;;;;;5095009;28;20412;-63
2022/10/13 12:19:25;;;;;;;;;;;14.50;99.90;;;;;;5094563;28;20531;-64
2022/10/13 12:21:53;;;;;;;;;;;14.60;99.90;;;;;;5094433;28;19973;-64
2022/10/13 12:24:22;;;;;;;;;;;14.60;99.90;;;;;;5094569;28;19978;-63
2022/10/13 12:26:50;;;;;;;;;;;14.60;99.90;;;;;;5094339;28;19974;-64
2022/10/13 12:29:19;;;;;;;;;;;14.70;99.90;;;;;;5094325;28;20002;-64
2022/10/13 12:31:48;;;;;;;;;;;14.70;99.90;;;;;;5094306;28;19970;-64
2022/10/13 12:34:19;;;;;;;;;;;14.80;99.90;;;;;;5094664;28;20481;-64
2022/10/13 12:36:52;;;;;;;;;;;14.80;99.90;;;;;;5094779;28;19978;-64
2022/10/13 12:39:25;;;;;;;;;;;14.70;99.90;;;;;;5093974;28;19975;-64
2022/10/13 12:41:54;;;;;;;;;;;14.70;99.90;;;;;;5093777;28;19978;-64
2022/10/13 12:44:23;;;;;;;;;;;14.70;99.90;;;;;;5094002;28;20410;-64
2022/10/13 12:46:52;;;;;;;;;;;14.70;99.90;;;;;;5094211;28;19998;-64
2022/10/13 12:49:22;;;;;;;;;;;14.80;99.90;;;;;;5093781;28;20465;-64
2022/10/13 12:51:52;;;;;;;;;;;14.90;99.90;;;;;;5094027;28;20065;-64
2022/10/13 12:54:22;;;;;;;;;;;14.80;99.90;;;;;;5093992;28;19966;-64
2022/10/13 12:56:50;;;;;;;;;;;14.90;99.90;;;;;;5093942;28;19968;-64
2022/10/13 12:59:23;;;;;;;;;;;14.90;99.90;;;;;;5093611;28;19972;-64
2022/10/13 13:01:56;;;;;;;;;;;15.00;99.90;;;;;;5093573;28;19977;-64
2022/10/13 13:04:42;;;;;;;;;;;15.00;99.90;;;;;;5093814;28;20013;-64
2022/10/13 13:07:25;;;;;;;;;;;14.90;99.90;;;;;;5093550;28;19973;-64
2022/10/13 13:09:59;;;;;;;;;;;14.80;99.90;;;;;;5093290;28;19971;-64
2022/10/13 13:12:28;;;;;;;;;;;14.80;99.90;;;;;;5093487;28;20009;-64
2022/10/13 13:14:56;;;;;;;;;;;14.90;99.90;;;;;;5093486;28;20440;-64
2022/10/13 13:17:25;;;;;;;;;;;14.80;99.90;;;;;;5093546;28;19967;-64
2022/10/13 13:20:22;;;;;;;;;;;14.90;99.90;;;;;;5092939;28;19978;-64
2022/10/13 13:22:50;;;;;;;;;;;14.90;99.90;;;;;;5093353;28;19989;-64
2022/10/13 13:25:18;;;;;;;;;;;14.90;99.90;;;;;;5092687;28;20007;-64
2022/10/13 13:27:46;;;;;;;;;;;14.80;99.90;;;;;;5093336;28;20270;-64
2022/10/13 13:30:15;;;;;;;;;;;14.90;99.90;;;;;;5092857;28;19974;-64
2022/10/13 13:32:43;;;;;;;;;;;15.00;99.90;;;;;;5093284;28;19969;-64
2022/10/13 13:35:11;;;;;;;;;;;15.00;99.90;;;;;;5092904;28;20371;-63
2022/10/13 13:37:41;;;;;;;;;;;15.10;99.90;;;;;;5093179;28;20432;-63
2022/10/13 13:40:14;;;;;;;;;;;15.20;99.90;;;;;;5092915;28;19967;-64
2022/10/13 13:42:42;;;;;;;;;;;15.20;99.90;;;;;;5092736;28;19976;-64
2022/10/13 13:45:12;;;;;;;;;;;15.30;99.90;;;;;;5092532;28;19974;-64
2022/10/13 13:47:39;;;;;;;;;;;15.30;99.90;;;;;;5093117;28;19977;-64
2022/10/13 13:50:13;;;;;;;;;;;15.40;99.90;;;;;;5092534;28;19967;-64
2022/10/13 13:52:42;;;;;;;;;;;15.50;99.90;;;;;;5092941;28;19972;-64
2022/10/13 13:55:10;;;;;;;;;;;15.40;99.90;;;;;;5092829;28;19974;-64
2022/10/13 13:57:37;;;;;;;;;;;15.40;99.90;;;;;;5092660;28;20530;-64
2022/10/13 14:00:06;;;;;;;;;;;15.40;99.90;;;;;;5092483;28;19967;-64
2022/10/13 14:02:34;;;;;;;;;;;15.40;99.90;;;;;;5092793;28;19971;-64
2022/10/13 14:05:01;;;;;;;;;;;15.40;99.90;;;;;;5092583;28;20060;-64
2022/10/13 14:07:29;;;;;;;;;;;15.50;99.90;;;;;;5092406;28;19973;-64
2022/10/13 14:09:58;;;;;;;;;;;15.50;99.90;;;;;;5092151;28;19972;-64
2022/10/13 14:12:29;;;;;;;;;;;15.50;99.90;;;;;;5092766;28;20354;-64
2022/10/13 14:14:57;;;;;;;;;;;15.60;99.90;;;;;;5092351;28;19966;-64
2022/10/13 14:17:25;;;;;;;;;;;15.50;99.90;;;;;;5092487;28;20018;-64
2022/10/13 14:19:52;;;;;;;;;;;15.50;99.90;;;;;;5092033;28;19974;-64
2022/10/13 14:22:20;;;;;;;;;;;15.50;99.90;;;;;;5092416;28;19974;-64
2022/10/13 14:24:49;;;;;;;;;;;15.40;99.90;;;;;;5092257;28;19967;-64
2022/10/13 14:27:18;;;;;;;;;;;15.40;99.90;;;;;;5092287;28;19967;-64
2022/10/13 14:29:46;;;;;;;;;;;15.30;99.90;;;;;;5091808;28;19972;-64
2022/10/13 14:32:13;;;;;;;;;;;15.30;99.90;;;;;;5092100;28;20009;-64
2022/10/13 14:34:41;;;;;;;;;;;15.30;99.90;;;;;;5092193;28;19968;-64